Time;durP1;ratioP1;P1;durP2;ratioP2;P2;SDS_P1;SDS_P2;PMS_P1;PMS_P2;Temp;Humidity;BMP_temperature;BMP_pressure;BME280_temperature;BME280_humidity;BME280_pressure;Samples;Min_cycle;Max_cycle;Signal;HPM_P1;HPM_P2
2024/03/09 00:00:22;;;;;;;1.27;1.17;;;;;;;;;;5031567;28;20034;-63
2024/03/09 00:02:49;;;;;;;2.95;1.30;;;;;;;;;;5031282;28;20037;-63
2024/03/09 00:05:15;;;;;;;1.23;1.00;;;;;;;;;;5031603;28;20360;-62
2024/03/09 00:07:41;;;;;;;3.03;1.10;;;;;;;;;;5029863;28;20120;-61
2024/03/09 00:10:07;;;;;;;2.00;0.90;;;;;;;;;;5030062;28;20044;-62
2024/03/09 00:12:34;;;;;;;0.85;0.85;;;;;;;;;;5030226;28;20037;-62
2024/03/09 00:15:01;;;;;;;1.25;1.10;;;;;;;;;;5033026;28;20029;-62
2024/03/09 00:17:28;;;;;;;0.82;0.82;;;;;;;;;;5017397;28;20568;-63
2024/03/09 00:19:54;;;;;;;1.75;1.08;;;;;;;;;;5017429;28;20037;-62
2024/03/09 00:22:20;;;;;;;1.20;1.10;;;;;;;;;;5033575;28;20041;-63
2024/03/09 00:24:47;;;;;;;0.80;0.80;;;;;;;;;;5035304;28;20099;-61
2024/03/09 00:27:18;;;;;;;2.03;0.93;;;;;;;;;;5034873;28;20151;-63
2024/03/09 00:29:43;;;;;;;1.58;1.02;;;;;;;;;;5035291;28;20392;-61
2024/03/09 00:32:11;;;;;;;0.95;0.70;;;;;;;;;;5035017;28;20064;-63
2024/03/09 00:34:37;;;;;;;1.67;1.05;;;;;;;;;;5016867;28;20049;-62
2024/03/09 00:37:04;;;;;;;1.45;1.35;;;;;;;;;;5033384;28;20045;-63
2024/03/09 00:39:29;;;;;;;0.95;0.90;;;;;;;;;;5034877;28;20033;-62
2024/03/09 00:41:55;;;;;;;0.80;0.80;;;;;;;;;;5034860;28;20038;-62
2024/03/09 00:44:20;;;;;;;1.02;0.80;;;;;;;;;;5034766;28;20553;-62
2024/03/09 00:46:49;;;;;;;2.47;0.90;;;;;;;;;;5034767;28;20063;-65
2024/03/09 00:49:14;;;;;;;2.00;0.88;;;;;;;;;;5033295;28;20048;-63
2024/03/09 00:51:40;;;;;;;0.93;0.88;;;;;;;;;;5034387;28;20041;-63
2024/03/09 00:54:06;;;;;;;1.00;0.90;;;;;;;;;;5034247;28;20043;-62
2024/03/09 00:56:33;;;;;;;1.48;0.85;;;;;;;;;;5032859;28;20053;-62
2024/03/09 00:59:00;;;;;;;1.10;1.00;;;;;;;;;;5034310;28;20033;-62
2024/03/09 01:01:26;;;;;;;0.80;0.80;;;;;;;;;;5034442;28;20491;-62
2024/03/09 01:03:53;;;;;;;0.80;0.80;;;;;;;;;;5034353;28;20167;-62
2024/03/09 01:06:21;;;;;;;0.80;0.80;;;;;;;;;;5034273;28;20041;-63
2024/03/09 01:08:49;;;;;;;0.80;0.80;;;;;;;;;;5032593;28;20038;-61
2024/03/09 01:11:17;;;;;;;1.55;0.90;;;;;;;;;;5033740;28;20119;-62
2024/03/09 01:13:43;;;;;;;3.15;0.85;;;;;;;;;;5032943;28;20045;-62
2024/03/09 01:16:09;;;;;;;0.73;0.73;;;;;;;;;;5032509;28;20045;-62
2024/03/09 01:18:35;;;;;;;3.67;0.90;;;;;;;;;;5032865;28;20116;-62
2024/03/09 01:21:00;;;;;;;0.68;0.68;;;;;;;;;;5033895;28;20463;-62
2024/03/09 01:23:26;;;;;;;2.28;0.88;;;;;;;;;;5033706;28;20446;-62
2024/03/09 01:25:52;;;;;;;1.02;0.90;;;;;;;;;;5033214;28;20132;-60
2024/03/09 01:28:17;;;;;;;0.82;0.82;;;;;;;;;;5032234;28;20037;-61
2024/03/09 01:30:43;;;;;;;1.05;0.93;;;;;;;;;;5033938;28;20042;-63
2024/03/09 01:33:09;;;;;;;1.48;0.90;;;;;;;;;;5032308;28;20034;-62
2024/03/09 01:35:34;;;;;;;3.28;0.90;;;;;;;;;;5033772;28;20147;-62
2024/03/09 01:38:00;;;;;;;0.82;0.82;;;;;;;;;;5033514;28;20133;-63
2024/03/09 01:40:26;;;;;;;0.80;0.80;;;;;;;;;;5033602;28;20041;-64
2024/03/09 01:42:52;;;;;;;2.72;1.40;;;;;;;;;;5033597;28;20040;-62
2024/03/09 01:45:17;;;;;;;4.72;2.40;;;;;;;;;;5033778;28;20088;-62
2024/03/09 01:47:43;;;;;;;2.67;1.73;;;;;;;;;;5033588;28;20471;-61
2024/03/09 01:50:12;;;;;;;3.95;2.30;;;;;;;;;;5032233;28;20033;-62
2024/03/09 01:52:41;;;;;;;9.20;3.45;;;;;;;;;;5033495;28;20500;-62
2024/03/09 01:55:09;;;;;;;6.63;3.03;;;;;;;;;;5031938;28;20041;-62
2024/03/09 01:57:34;;;;;;;4.53;2.00;;;;;;;;;;5033390;28;20076;-64
2024/03/09 02:00:01;;;;;;;3.40;1.70;;;;;;;;;;5033532;28;20037;-62
2024/03/09 02:02:30;;;;;;;4.53;2.20;;;;;;;;;;5031752;28;20041;-61
2024/03/09 02:04:56;;;;;;;4.63;2.10;;;;;;;;;;5031989;28;20486;-62
2024/03/09 02:07:22;;;;;;;4.65;2.20;;;;;;;;;;5031711;28;20049;-62
2024/03/09 02:09:50;;;;;;;4.05;1.85;;;;;;;;;;5033290;28;20033;-63
2024/03/09 02:12:17;;;;;;;6.72;1.70;;;;;;;;;;5033139;28;20063;-61
2024/03/09 02:14:44;;;;;;;2.92;1.60;;;;;;;;;;5033044;28;20487;-62
2024/03/09 02:17:11;;;;;;;1.77;1.52;;;;;;;;;;5031580;28;20247;-63
2024/03/09 02:19:41;;;;;;;1.83;1.00;;;;;;;;;;5031441;28;20029;-61
2024/03/09 02:22:09;;;;;;;2.42;1.70;;;;;;;;;;5032985;28;20040;-61
2024/03/09 02:24:40;;;;;;;1.73;1.30;;;;;;;;;;5032939;28;20033;-62
2024/03/09 02:27:07;;;;;;;4.68;1.80;;;;;;;;;;5033005;28;20038;-63
2024/03/09 02:29:33;;;;;;;3.90;1.80;;;;;;;;;;5031272;28;20033;-62
2024/03/09 02:31:58;;;;;;;3.70;1.60;;;;;;;;;;5031428;28;20052;-64
2024/03/09 02:34:24;;;;;;;3.00;1.60;;;;;;;;;;5031022;28;20061;-62
2024/03/09 02:36:49;;;;;;;2.22;1.20;;;;;;;;;;5032577;28;20045;-62
2024/03/09 02:39:15;;;;;;;0.88;0.88;;;;;;;;;;5030013;28;20034;-61
2024/03/09 02:41:41;;;;;;;2.90;0.80;;;;;;;;;;5032335;28;20060;-62
2024/03/09 02:44:11;;;;;;;0.80;0.80;;;;;;;;;;5032569;28;20065;-61
2024/03/09 02:46:36;;;;;;;1.20;0.83;;;;;;;;;;5031340;28;20061;-61
2024/03/09 02:49:04;;;;;;;1.08;0.80;;;;;;;;;;5014714;28;20072;-61
2024/03/09 02:51:32;;;;;;;2.53;1.10;;;;;;;;;;5014384;28;20037;-62
2024/03/09 02:53:58;;;;;;;2.83;1.00;;;;;;;;;;5030939;28;20033;-63
2024/03/09 02:56:24;;;;;;;1.67;1.10;;;;;;;;;;5032160;28;20073;-60
2024/03/09 02:58:49;;;;;;;1.02;1.00;;;;;;;;;;5014511;28;20040;-63
2024/03/09 03:01:17;;;;;;;3.97;1.17;;;;;;;;;;5031886;28;20102;-64
2024/03/09 03:03:46;;;;;;;2.05;1.00;;;;;;;;;;5031970;28;20475;-61
2024/03/09 03:06:13;;;;;;;1.00;1.00;;;;;;;;;;5014317;28;20392;-62
2024/03/09 03:08:38;;;;;;;1.45;1.10;;;;;;;;;;5030812;28;20087;-61
2024/03/09 03:11:04;;;;;;;1.30;0.93;;;;;;;;;;5032058;28;20037;-62
2024/03/09 03:13:30;;;;;;;1.58;1.00;;;;;;;;;;5031850;28;20094;-61
2024/03/09 03:15:55;;;;;;;3.10;1.30;;;;;;;;;;5030574;28;20053;-61
2024/03/09 03:18:22;;;;;;;2.88;1.42;;;;;;;;;;5030471;28;20404;-61
2024/03/09 03:20:48;;;;;;;2.10;1.27;;;;;;;;;;5031910;28;20083;-63
2024/03/09 03:23:14;;;;;;;1.45;0.95;;;;;;;;;;5030268;28;20530;-61
2024/03/09 03:25:39;;;;;;;1.20;0.88;;;;;;;;;;5031870;28;20037;-64
2024/03/09 03:28:08;;;;;;;3.33;1.05;;;;;;;;;;5030230;28;20059;-61
2024/03/09 03:30:33;;;;;;;1.48;0.95;;;;;;;;;;5030595;28;20053;-62
2024/03/09 03:33:00;;;;;;;2.67;1.58;;;;;;;;;;5030542;28;20037;-62
2024/03/09 03:35:25;;;;;;;2.83;1.00;;;;;;;;;;5031778;28;20061;-62
2024/03/09 03:37:53;;;;;;;1.42;1.00;;;;;;;;;;5030161;28;20550;-61
2024/03/09 03:40:22;;;;;;;0.93;0.80;;;;;;;;;;5013975;28;20565;-61
2024/03/09 03:42:48;;;;;;;0.90;0.90;;;;;;;;;;5031388;28;20495;-61
2024/03/09 03:45:14;;;;;;;4.30;1.00;;;;;;;;;;5030273;28;20072;-62
2024/03/09 03:47:40;;;;;;;2.15;1.33;;;;;;;;;;5030394;28;20041;-62
2024/03/09 03:50:08;;;;;;;1.10;1.00;;;;;;;;;;5031343;28;20090;-61
2024/03/09 03:52:34;;;;;;;1.13;1.00;;;;;;;;;;5031214;28;20086;-62
2024/03/09 03:55:00;;;;;;;1.15;1.10;;;;;;;;;;5014022;28;20115;-63
2024/03/09 03:57:27;;;;;;;2.22;1.40;;;;;;;;;;5030015;28;20104;-62
2024/03/09 03:59:53;;;;;;;1.50;1.30;;;;;;;;;;5030144;28;20041;-62
2024/03/09 04:02:19;;;;;;;2.00;1.23;;;;;;;;;;5031362;28;20057;-61
2024/03/09 04:04:45;;;;;;;1.77;1.60;;;;;;;;;;5013578;28;20524;-62
2024/03/09 04:07:10;;;;;;;2.78;1.50;;;;;;;;;;5031096;28;20391;-63
2024/03/09 04:09:36;;;;;;;1.52;1.33;;;;;;;;;;5031448;28;20060;-61
2024/03/09 04:12:01;;;;;;;3.45;1.92;;;;;;;;;;5030241;28;20040;-61
2024/03/09 04:14:27;;;;;;;4.80;1.98;;;;;;;;;;5031348;28;20090;-61
2024/03/09 04:16:57;;;;;;;2.15;1.75;;;;;;;;;;5029725;28;20426;-64
2024/03/09 04:19:22;;;;;;;3.05;1.67;;;;;;;;;;5031319;28;20088;-63
2024/03/09 04:21:48;;;;;;;3.22;1.80;;;;;;;;;;5029898;28;20037;-60
2024/03/09 04:24:14;;;;;;;7.90;2.28;;;;;;;;;;5029698;28;20080;-63
2024/03/09 04:26:40;;;;;;;4.35;1.83;;;;;;;;;;5029634;28;20029;-62
2024/03/09 04:29:06;;;;;;;3.67;2.00;;;;;;;;;;5029516;28;20036;-62
2024/03/09 04:31:32;;;;;;;5.07;2.03;;;;;;;;;;5030781;28;20037;-61
2024/03/09 04:34:01;;;;;;;2.70;2.00;;;;;;;;;;5030735;28;20111;-61
2024/03/09 04:36:29;;;;;;;2.33;1.90;;;;;;;;;;5030921;28;20518;-62
2024/03/09 04:39:00;;;;;;;3.33;1.73;;;;;;;;;;5029517;28;20034;-62
2024/03/09 04:41:28;;;;;;;2.58;2.03;;;;;;;;;;5029870;28;20041;-61
2024/03/09 04:43:54;;;;;;;3.25;1.90;;;;;;;;;;5029461;28;20407;-62
2024/03/09 04:46:19;;;;;;;2.55;1.83;;;;;;;;;;5029872;28;20033;-63
2024/03/09 04:48:45;;;;;;;3.78;2.10;;;;;;;;;;5030989;28;20554;-63
2024/03/09 04:51:12;;;;;;;4.95;1.88;;;;;;;;;;5030955;28;20037;-62
2024/03/09 04:53:38;;;;;;;2.88;1.40;;;;;;;;;;5030659;28;20493;-62
2024/03/09 04:56:04;;;;;;;3.22;1.70;;;;;;;;;;5030508;28;20053;-65
2024/03/09 04:58:29;;;;;;;5.97;2.50;;;;;;;;;;5012737;28;20033;-64
2024/03/09 05:00:55;;;;;;;3.05;1.85;;;;;;;;;;5029298;28;20463;-64
2024/03/09 05:03:22;;;;;;;3.40;1.77;;;;;;;;;;5033923;28;20091;-63
2024/03/09 05:05:48;;;;;;;3.72;1.90;;;;;;;;;;5033175;28;20037;-63
2024/03/09 05:08:13;;;;;;;1.65;1.55;;;;;;;;;;5033822;28;20041;-62
2024/03/09 05:10:39;;;;;;;3.78;2.00;;;;;;;;;;5032844;28;20033;-62
2024/03/09 05:13:06;;;;;;;2.25;1.50;;;;;;;;;;5034103;28;20457;-62
2024/03/09 05:15:32;;;;;;;1.77;1.67;;;;;;;;;;5034027;28;20033;-64
2024/03/09 05:17:58;;;;;;;2.97;1.90;;;;;;;;;;5034060;28;20460;-62
2024/03/09 05:20:25;;;;;;;3.42;2.10;;;;;;;;;;5034298;28;20034;-63
2024/03/09 05:22:55;;;;;;;4.47;1.77;;;;;;;;;;5032893;28;20044;-63
2024/03/09 05:25:21;;;;;;;6.20;2.13;;;;;;;;;;5032887;28;20272;-62
2024/03/09 05:27:48;;;;;;;2.90;1.83;;;;;;;;;;5033712;28;20052;-63
2024/03/09 05:30:18;;;;;;;2.25;1.75;;;;;;;;;;5033601;28;20399;-63
2024/03/09 05:32:54;;;;;;;2.17;1.60;;;;;;;;;;5034010;28;20041;-62
2024/03/09 05:35:20;;;;;;;1.90;1.70;;;;;;;;;;5033848;28;20060;-63
2024/03/09 05:37:46;;;;;;;3.15;1.60;;;;;;;;;;5033568;28;20045;-64
2024/03/09 05:40:13;;;;;;;2.33;1.45;;;;;;;;;;5033942;28;20044;-63
2024/03/09 05:42:47;;;;;;;2.30;2.03;;;;;;;;;;5033428;28;20207;-64
2024/03/09 05:45:20;;;;;;;1.63;1.40;;;;;;;;;;5033323;28;20048;-63
2024/03/09 05:47:47;;;;;;;2.60;1.48;;;;;;;;;;5033423;28;20049;-62
2024/03/09 05:50:16;;;;;;;2.08;1.45;;;;;;;;;;5015819;28;20500;-63
2024/03/09 05:52:47;;;;;;;2.97;1.70;;;;;;;;;;5031967;28;20068;-62
2024/03/09 05:55:13;;;;;;;1.98;1.60;;;;;;;;;;5033664;28;20112;-60
2024/03/09 05:57:43;;;;;;;2.00;1.40;;;;;;;;;;5033298;28;20514;-60
2024/03/09 06:00:09;;;;;;;6.22;1.60;;;;;;;;;;5031647;28;20033;-63
2024/03/09 06:02:42;;;;;;;3.25;1.50;;;;;;;;;;5031707;28;20551;-63
2024/03/09 06:05:08;;;;;;;1.85;1.25;;;;;;;;;;5033494;28;20120;-61
2024/03/09 06:07:37;;;;;;;1.77;1.05;;;;;;;;;;5033212;28;20518;-61
2024/03/09 06:10:04;;;;;;;1.15;1.05;;;;;;;;;;5031901;28;20021;-63
2024/03/09 06:12:29;;;;;;;2.63;1.30;;;;;;;;;;5032825;28;20474;-62
2024/03/09 06:14:55;;;;;;;2.60;1.45;;;;;;;;;;5031660;28;20121;-62
2024/03/09 06:17:20;;;;;;;1.85;1.20;;;;;;;;;;5032853;28;20531;-62
2024/03/09 06:19:48;;;;;;;2.67;1.10;;;;;;;;;;5033080;28;20052;-63
2024/03/09 06:22:13;;;;;;;3.22;1.40;;;;;;;;;;5032714;28;20049;-63
2024/03/09 06:24:39;;;;;;;3.03;1.50;;;;;;;;;;5033066;28;20037;-62
2024/03/09 06:27:09;;;;;;;2.35;1.20;;;;;;;;;;5031709;28;20491;-66
2024/03/09 06:29:35;;;;;;;2.30;1.10;;;;;;;;;;5015197;28;20037;-63
2024/03/09 06:32:00;;;;;;;2.17;1.35;;;;;;;;;;5032686;28;20037;-63
2024/03/09 06:34:26;;;;;;;1.67;1.45;;;;;;;;;;5031003;28;20543;-62
2024/03/09 06:36:55;;;;;;;0.90;0.90;;;;;;;;;;5032612;28;20057;-62
2024/03/09 06:39:20;;;;;;;2.03;1.00;;;;;;;;;;5032469;28;20067;-62
2024/03/09 06:41:47;;;;;;;2.20;1.38;;;;;;;;;;5032498;28;20037;-63
2024/03/09 06:44:14;;;;;;;1.50;1.10;;;;;;;;;;5030838;28;20029;-62
2024/03/09 06:46:39;;;;;;;3.72;2.03;;;;;;;;;;5032258;28;20033;-62
2024/03/09 06:49:08;;;;;;;6.20;1.50;;;;;;;;;;5032266;28;20037;-63
2024/03/09 06:51:33;;;;;;;1.90;1.25;;;;;;;;;;5032399;28;20404;-63
2024/03/09 06:53:59;;;;;;;1.75;1.20;;;;;;;;;;5032283;28;20041;-63
2024/03/09 06:56:26;;;;;;;1.83;1.13;;;;;;;;;;5032127;28;20135;-64
2024/03/09 06:58:53;;;;;;;1.35;1.15;;;;;;;;;;5030753;28;20045;-62
2024/03/09 07:01:21;;;;;;;1.05;0.80;;;;;;;;;;5030915;28;20048;-63
2024/03/09 07:03:47;;;;;;;2.60;1.27;;;;;;;;;;5032097;28;20128;-63
2024/03/09 07:06:13;;;;;;;1.17;1.10;;;;;;;;;;5031924;28;20068;-63
2024/03/09 07:08:38;;;;;;;2.55;1.20;;;;;;;;;;5032052;28;20052;-62
2024/03/09 07:11:04;;;;;;;1.52;1.30;;;;;;;;;;5032132;28;20471;-64
2024/03/09 07:13:30;;;;;;;1.35;1.00;;;;;;;;;;5031902;28;20036;-62
2024/03/09 07:15:56;;;;;;;0.98;0.95;;;;;;;;;;5031589;28;20045;-63
2024/03/09 07:18:24;;;;;;;1.60;1.25;;;;;;;;;;5031792;28;20060;-64
2024/03/09 07:20:52;;;;;;;2.13;1.00;;;;;;;;;;5031420;28;20123;-63
2024/03/09 07:23:17;;;;;;;1.17;1.05;;;;;;;;;;5031326;28;20033;-62
2024/03/09 07:25:43;;;;;;;1.20;1.10;;;;;;;;;;5031076;28;20103;-62
2024/03/09 07:28:11;;;;;;;1.30;1.20;;;;;;;;;;5031700;28;20376;-63
2024/03/09 07:30:37;;;;;;;0.80;0.80;;;;;;;;;;5031425;28;20037;-63
2024/03/09 07:33:03;;;;;;;1.10;1.10;;;;;;;;;;5031466;28;20041;-63
2024/03/09 07:35:29;;;;;;;1.40;1.30;;;;;;;;;;5031367;28;20049;-62
2024/03/09 07:37:58;;;;;;;1.00;1.00;;;;;;;;;;5030105;28;20033;-62
2024/03/09 07:40:29;;;;;;;1.10;1.08;;;;;;;;;;5031802;28;20041;-63
2024/03/09 07:42:55;;;;;;;0.93;0.93;;;;;;;;;;5030502;28;20037;-63
2024/03/09 07:45:22;;;;;;;1.05;1.02;;;;;;;;;;5031303;28;20045;-63
2024/03/09 07:47:49;;;;;;;3.55;1.30;;;;;;;;;;5031576;28;20498;-61
2024/03/09 07:50:16;;;;;;;1.40;1.20;;;;;;;;;;5030237;28;20056;-62
2024/03/09 07:52:46;;;;;;;1.88;1.08;;;;;;;;;;5031599;28;20552;-62
2024/03/09 07:55:12;;;;;;;1.88;1.50;;;;;;;;;;5030164;28;20056;-63
2024/03/09 07:57:37;;;;;;;3.72;1.25;;;;;;;;;;5030196;28;20503;-64
2024/03/09 08:00:06;;;;;;;1.63;1.30;;;;;;;;;;5031648;28;20072;-63
2024/03/09 08:02:32;;;;;;;1.48;0.90;;;;;;;;;;5030228;28;20471;-63
2024/03/09 08:05:02;;;;;;;1.08;1.08;;;;;;;;;;5031589;28;20514;-63
2024/03/09 08:07:32;;;;;;;1.05;1.05;;;;;;;;;;5030015;28;20048;-64
2024/03/09 08:09:58;;;;;;;5.80;1.05;;;;;;;;;;5031553;28;20571;-65
2024/03/09 08:12:23;;;;;;;2.58;1.88;;;;;;;;;;5030113;28;20140;-64
2024/03/09 08:14:49;;;;;;;3.05;1.20;;;;;;;;;;5031158;28;20383;-62
2024/03/09 08:17:15;;;;;;;2.13;1.63;;;;;;;;;;5031037;28;20060;-63
2024/03/09 08:19:41;;;;;;;2.53;1.20;;;;;;;;;;5031121;28;20033;-61
2024/03/09 08:22:08;;;;;;;0.98;0.98;;;;;;;;;;5030975;28;20048;-64
2024/03/09 08:24:35;;;;;;;1.35;0.85;;;;;;;;;;5029556;28;20052;-62
2024/03/09 08:27:02;;;;;;;1.55;1.10;;;;;;;;;;5030819;28;20034;-62
2024/03/09 08:29:29;;;;;;;1.35;1.10;;;;;;;;;;5031173;28;20033;-64
2024/03/09 08:31:55;;;;;;;1.15;1.05;;;;;;;;;;5030954;28;20092;-63
2024/03/09 08:34:21;;;;;;;1.63;1.30;;;;;;;;;;5030880;28;20053;-62
2024/03/09 08:36:46;;;;;;;1.00;1.00;;;;;;;;;;5033387;28;20046;-63
2024/03/09 08:39:12;;;;;;;1.67;1.30;;;;;;;;;;5034857;28;20055;-63
2024/03/09 08:41:38;;;;;;;1.45;1.10;;;;;;;;;;5034816;28;20080;-64
2024/03/09 08:44:03;;;;;;;2.10;1.30;;;;;;;;;;5034453;28;20049;-62
2024/03/09 08:46:29;;;;;;;1.20;1.10;;;;;;;;;;5033489;28;20045;-64
2024/03/09 08:48:55;;;;;;;1.25;1.10;;;;;;;;;;5034564;28;20408;-62
2024/03/09 08:51:20;;;;;;;1.17;1.00;;;;;;;;;;5034496;28;20042;-64
2024/03/09 08:53:46;;;;;;;1.33;1.10;;;;;;;;;;5034565;28;20082;-63
2024/03/09 08:56:15;;;;;;;1.27;1.17;;;;;;;;;;5034434;28;20053;-63
2024/03/09 08:58:41;;;;;;;2.45;1.25;;;;;;;;;;5033080;28;20391;-64
2024/03/09 09:01:06;;;;;;;2.10;1.17;;;;;;;;;;5034478;28;20038;-62
2024/03/09 09:03:33;;;;;;;1.40;1.30;;;;;;;;;;5034092;28;20029;-61
2024/03/09 09:05:58;;;;;;;1.20;1.10;;;;;;;;;;5033018;28;20033;-62
2024/03/09 09:08:28;;;;;;;1.15;1.10;;;;;;;;;;5016329;28;20107;-62
2024/03/09 09:10:54;;;;;;;1.10;1.00;;;;;;;;;;5034111;28;20069;-64
2024/03/09 09:13:21;;;;;;;3.47;1.30;;;;;;;;;;5034150;28;20071;-62
2024/03/09 09:15:47;;;;;;;1.20;1.10;;;;;;;;;;5034103;28;20051;-64
2024/03/09 09:18:16;;;;;;;1.23;1.00;;;;;;;;;;5032804;28;20045;-62
2024/03/09 09:20:42;;;;;;;1.67;1.08;;;;;;;;;;5033882;28;20069;-63
2024/03/09 09:23:11;;;;;;;0.90;0.90;;;;;;;;;;5032445;28;20068;-61
2024/03/09 09:25:38;;;;;;;1.17;1.10;;;;;;;;;;5033764;28;20045;-62
2024/03/09 09:28:05;;;;;;;1.60;1.25;;;;;;;;;;5033636;28;20566;-62
2024/03/09 09:30:34;;;;;;;1.20;1.02;;;;;;;;;;5033591;28;20037;-63
2024/03/09 09:33:00;;;;;;;6.07;1.17;;;;;;;;;;5033676;28;20038;-64
2024/03/09 09:35:26;;;;;;;1.75;1.13;;;;;;;;;;5033665;28;20453;-64
2024/03/09 09:37:52;;;;;;;4.20;1.95;;;;;;;;;;5032852;28;20111;-62
2024/03/09 09:40:18;;;;;;;3.75;1.40;;;;;;;;;;5032278;28;20064;-63
2024/03/09 09:42:44;;;;;;;2.38;1.10;;;;;;;;;;5032502;28;20118;-63
2024/03/09 09:45:18;;;;;;;2.45;1.48;;;;;;;;;;5033883;28;20514;-63
2024/03/09 09:47:46;;;;;;;1.25;1.00;;;;;;;;;;5032793;28;20037;-63
2024/03/09 09:50:18;;;;;;;1.50;1.00;;;;;;;;;;5033159;28;20026;-63
2024/03/09 09:52:48;;;;;;;1.08;1.08;;;;;;;;;;5033396;28;20128;-63
2024/03/09 09:55:15;;;;;;;1.10;1.10;;;;;;;;;;5033715;28;20471;-62
2024/03/09 09:57:46;;;;;;;6.38;1.02;;;;;;;;;;5031805;28;20060;-62
2024/03/09 10:00:12;;;;;;;2.47;1.08;;;;;;;;;;5032076;28;20037;-61
2024/03/09 10:02:39;;;;;;;2.35;1.35;;;;;;;;;;5033047;28;20034;-61
2024/03/09 10:05:14;;;;;;;1.42;0.88;;;;;;;;;;5032033;28;20049;-62
2024/03/09 10:07:57;;;;;;;1.15;1.08;;;;;;;;;;5033188;28;20038;-63
2024/03/09 10:10:26;;;;;;;6.13;1.48;;;;;;;;;;5031862;28;20041;-65
2024/03/09 10:13:03;;;;;;;1.20;1.10;;;;;;;;;;5032007;28;20087;-62
2024/03/09 10:15:28;;;;;;;1.88;1.40;;;;;;;;;;5031561;28;20037;-63
2024/03/09 10:17:54;;;;;;;1.10;1.00;;;;;;;;;;5031525;28;20095;-62
2024/03/09 10:20:20;;;;;;;2.58;0.98;;;;;;;;;;5033150;28;20029;-63
2024/03/09 10:22:47;;;;;;;1.55;1.30;;;;;;;;;;5032877;28;20030;-62
2024/03/09 10:25:22;;;;;;;2.55;1.27;;;;;;;;;;5033067;28;20368;-61
2024/03/09 10:27:48;;;;;;;2.30;1.10;;;;;;;;;;5032939;28;20131;-63
2024/03/09 10:30:15;;;;;;;2.15;1.33;;;;;;;;;;5031529;28;20124;-63
2024/03/09 10:32:44;;;;;;;1.98;1.00;;;;;;;;;;5032762;28;20056;-63
2024/03/09 10:35:10;;;;;;;1.65;1.25;;;;;;;;;;5032861;28;20049;-61
2024/03/09 10:37:40;;;;;;;2.28;1.23;;;;;;;;;;5031100;28;20049;-62
2024/03/09 10:40:12;;;;;;;2.05;1.40;;;;;;;;;;5032843;28;20059;-62
2024/03/09 10:42:45;;;;;;;3.33;0.93;;;;;;;;;;5031272;28;20060;-63
2024/03/09 10:45:16;;;;;;;1.95;1.20;;;;;;;;;;5032833;28;20059;-63
2024/03/09 10:48:04;;;;;;;3.38;1.20;;;;;;;;;;5031114;28;20029;-62
2024/03/09 10:50:29;;;;;;;1.27;1.10;;;;;;;;;;5032060;28;20094;-62
2024/03/09 10:53:13;;;;;;;1.85;1.17;;;;;;;;;;5032141;28;20064;-63
2024/03/09 10:55:44;;;;;;;1.98;1.20;;;;;;;;;;5032104;28;20044;-63
2024/03/09 10:58:13;;;;;;;1.10;0.90;;;;;;;;;;5030789;28;20518;-63
2024/03/09 11:00:39;;;;;;;1.00;1.00;;;;;;;;;;5031280;28;20110;-63
2024/03/09 11:03:08;;;;;;;1.20;1.10;;;;;;;;;;5032131;28;20503;-61
2024/03/09 11:05:37;;;;;;;1.00;1.00;;;;;;;;;;5030818;28;20431;-63
2024/03/09 11:08:04;;;;;;;1.75;0.88;;;;;;;;;;5030449;28;20411;-61
2024/03/09 11:10:30;;;;;;;1.13;1.02;;;;;;;;;;5031810;28;20041;-62
2024/03/09 11:12:55;;;;;;;1.20;1.10;;;;;;;;;;5032004;28;20407;-63
2024/03/09 11:15:25;;;;;;;1.35;0.95;;;;;;;;;;5032216;28;20041;-62
2024/03/09 11:17:53;;;;;;;2.58;1.17;;;;;;;;;;5030695;28;20473;-63
2024/03/09 11:20:22;;;;;;;1.10;1.10;;;;;;;;;;5032186;28;20064;-63
2024/03/09 11:22:49;;;;;;;1.13;1.08;;;;;;;;;;5031888;28;20037;-63
2024/03/09 11:25:14;;;;;;;1.00;1.00;;;;;;;;;;5030402;28;20048;-62
2024/03/09 11:27:41;;;;;;;1.90;1.20;;;;;;;;;;5031466;28;20033;-63
2024/03/09 11:30:08;;;;;;;1.80;1.10;;;;;;;;;;5031823;28;20064;-63
2024/03/09 11:32:36;;;;;;;1.98;1.25;;;;;;;;;;5014114;28;20583;-63
2024/03/09 11:35:22;;;;;;;1.27;0.90;;;;;;;;;;5031759;28;20084;-64
2024/03/09 11:37:50;;;;;;;1.67;1.30;;;;;;;;;;5031429;28;20049;-63
2024/03/09 11:40:17;;;;;;;1.92;1.02;;;;;;;;;;5031851;28;20120;-63
2024/03/09 11:42:44;;;;;;;1.23;1.00;;;;;;;;;;5030473;28;20037;-61
2024/03/09 11:45:11;;;;;;;1.30;1.20;;;;;;;;;;5031806;28;20514;-63
2024/03/09 11:47:37;;;;;;;1.30;1.20;;;;;;;;;;5030232;28;20038;-61
2024/03/09 11:50:03;;;;;;;3.05;0.93;;;;;;;;;;5030045;28;20041;-60
2024/03/09 11:52:31;;;;;;;1.50;1.15;;;;;;;;;;5031447;28;20072;-62
2024/03/09 11:55:02;;;;;;;1.77;1.10;;;;;;;;;;5031732;28;20127;-63
2024/03/09 11:57:31;;;;;;;1.15;0.90;;;;;;;;;;5030057;28;20049;-62
2024/03/09 11:59:57;;;;;;;2.25;1.30;;;;;;;;;;5031647;28;20056;-63
2024/03/09 12:02:24;;;;;;;1.08;1.08;;;;;;;;;;5031328;28;20116;-63
2024/03/09 12:04:56;;;;;;;1.25;1.20;;;;;;;;;;5030982;28;20487;-61
2024/03/09 12:07:22;;;;;;;2.97;2.10;;;;;;;;;;5031146;28;20049;-63
2024/03/09 12:09:49;;;;;;;2.65;1.85;;;;;;;;;;5029730;28;20049;-63
2024/03/09 12:12:15;;;;;;;1.85;1.33;;;;;;;;;;5033323;28;20045;-63
2024/03/09 12:14:41;;;;;;;3.92;1.55;;;;;;;;;;5035369;28;20536;-63
2024/03/09 12:17:07;;;;;;;1.30;1.20;;;;;;;;;;5034944;28;20049;-63
2024/03/09 12:19:33;;;;;;;3.50;1.13;;;;;;;;;;5035230;28;20029;-63
2024/03/09 12:21:59;;;;;;;1.20;1.10;;;;;;;;;;5033392;28;20030;-61
2024/03/09 12:24:24;;;;;;;1.27;1.17;;;;;;;;;;5035236;28;20037;-62
2024/03/09 12:26:50;;;;;;;2.50;1.20;;;;;;;;;;5034804;28;20416;-63
2024/03/09 12:29:17;;;;;;;0.95;0.93;;;;;;;;;;5017289;28;20041;-62
2024/03/09 12:31:42;;;;;;;1.30;0.90;;;;;;;;;;5034815;28;20038;-62
2024/03/09 12:34:10;;;;;;;2.35;1.02;;;;;;;;;;5034866;28;20115;-63
2024/03/09 12:36:38;;;;;;;1.38;1.27;;;;;;;;;;5033856;28;20145;-63
2024/03/09 12:39:17;;;;;;;1.42;1.33;;;;;;;;;;5035058;28;20065;-63
2024/03/09 12:41:49;;;;;;;1.17;0.90;;;;;;;;;;5033592;28;20092;-63
2024/03/09 12:44:15;;;;;;;1.17;0.95;;;;;;;;;;5034928;28;20549;-63
2024/03/09 12:46:43;;;;;;;0.90;0.90;;;;;;;;;;5034904;28;20053;-64
2024/03/09 12:49:11;;;;;;;1.60;0.90;;;;;;;;;;5034656;28;20048;-63
2024/03/09 12:51:41;;;;;;;1.20;1.10;;;;;;;;;;5016676;28;20116;-63
2024/03/09 12:54:10;;;;;;;1.23;1.13;;;;;;;;;;5033133;28;20052;-62
2024/03/09 12:56:37;;;;;;;2.70;1.10;;;;;;;;;;5034184;28;20115;-62
2024/03/09 12:59:04;;;;;;;2.70;1.30;;;;;;;;;;5034444;28;20125;-64
2024/03/09 13:01:36;;;;;;;1.85;1.20;;;;;;;;;;5033217;28;20049;-64
2024/03/09 13:04:07;;;;;;;2.90;1.77;;;;;;;;;;5034084;28;20042;-63
2024/03/09 13:06:37;;;;;;;1.90;1.20;;;;;;;;;;5032876;28;20212;-62
2024/03/09 13:09:10;;;;;;;2.58;2.00;;;;;;;;;;5034408;28;20029;-62
2024/03/09 13:11:36;;;;;;;1.23;1.00;;;;;;;;;;5034168;28;20499;-62
2024/03/09 13:14:03;;;;;;;2.80;1.45;;;;;;;;;;5033854;28;20041;-64
2024/03/09 13:16:31;;;;;;;0.90;0.90;;;;;;;;;;5033023;28;20331;-59
2024/03/09 13:18:56;;;;;;;1.20;1.20;;;;;;;;;;5034300;28;20084;-62
2024/03/09 13:21:22;;;;;;;1.15;1.10;;;;;;;;;;5033748;28;20560;-64
2024/03/09 13:23:48;;;;;;;5.10;2.40;;;;;;;;;;5011029;28;20040;-62
2024/03/09 13:26:14;;;;;;;1.30;1.20;;;;;;;;;;5033422;28;20088;-64
2024/03/09 13:28:40;;;;;;;1.08;1.02;;;;;;;;;;5032269;28;20245;-63
2024/03/09 13:31:07;;;;;;;2.17;1.30;;;;;;;;;;5032774;28;20550;-62
2024/03/09 13:33:41;;;;;;;1.42;1.33;;;;;;;;;;5031991;28;20053;-62
2024/03/09 13:36:17;;;;;;;4.20;1.60;;;;;;;;;;5031662;28;20045;-64
2024/03/09 13:38:43;;;;;;;1.17;1.08;;;;;;;;;;5032913;28;20032;-63
2024/03/09 13:41:09;;;;;;;1.98;1.55;;;;;;;;;;5031703;28;20045;-64
2024/03/09 13:43:39;;;;;;;1.05;0.98;;;;;;;;;;5031596;28;20487;-62
2024/03/09 13:46:05;;;;;;;1.20;1.20;;;;;;;;;;5033133;28;20104;-63
2024/03/09 13:48:31;;;;;;;2.97;1.30;;;;;;;;;;5033440;28;20041;-64
2024/03/09 13:50:58;;;;;;;1.85;1.10;;;;;;;;;;5031705;28;20045;-64
2024/03/09 13:53:23;;;;;;;3.10;1.55;;;;;;;;;;5015236;28;20041;-63
2024/03/09 13:55:49;;;;;;;1.42;1.13;;;;;;;;;;5032885;28;20041;-65
2024/03/09 13:58:18;;;;;;;1.10;1.00;;;;;;;;;;5031741;28;20038;-62
2024/03/09 14:00:44;;;;;;;1.83;1.15;;;;;;;;;;5032048;28;20041;-61
2024/03/09 14:03:10;;;;;;;2.88;1.20;;;;;;;;;;5032891;28;20037;-64
2024/03/09 14:05:36;;;;;;;1.30;1.20;;;;;;;;;;5031607;28;20556;-65
2024/03/09 14:08:02;;;;;;;2.30;1.27;;;;;;;;;;5014825;28;20045;-62
2024/03/09 14:10:34;;;;;;;1.55;1.30;;;;;;;;;;5032803;28;20061;-64
2024/03/09 14:13:07;;;;;;;1.80;1.20;;;;;;;;;;5032450;28;20575;-62
2024/03/09 14:15:36;;;;;;;1.83;1.30;;;;;;;;;;5032649;28;20152;-62
2024/03/09 14:18:02;;;;;;;2.17;1.30;;;;;;;;;;5032294;28;20077;-61
2024/03/09 14:20:28;;;;;;;1.65;1.55;;;;;;;;;;5032575;28;20048;-63
2024/03/09 14:22:54;;;;;;;3.00;1.60;;;;;;;;;;5031190;28;20033;-63
2024/03/09 14:25:29;;;;;;;3.50;1.90;;;;;;;;;;5032607;28;20026;-63
2024/03/09 14:27:55;;;;;;;1.63;1.38;;;;;;;;;;5032655;28;20037;-64
2024/03/09 14:30:26;;;;;;;1.63;1.52;;;;;;;;;;4999796;28;20038;-65
2024/03/09 14:32:53;;;;;;;3.03;1.70;;;;;;;;;;5031862;28;20176;-64
2024/03/09 14:35:19;;;;;;;4.18;1.88;;;;;;;;;;5030120;28;20050;-64
2024/03/09 14:37:45;;;;;;;3.17;1.70;;;;;;;;;;5031113;28;20049;-65
2024/03/09 14:40:11;;;;;;;1.88;1.58;;;;;;;;;;5031437;28;20036;-61
2024/03/09 14:42:38;;;;;;;1.60;1.17;;;;;;;;;;5031053;28;20066;-61